Enter the Airport ICAO Code

Search by Airport or City

Current Weather

LPPT | Lisbon Portela Airport

Lisbon, Portugal

Last Update 24 Minutes Ago

Sky with Few Clouds

Temperature of 12 ºC

Light to Moderate Winds from North

Temperature

12 ºC

Dew Point Temperature

06 ºC

Relative Humidity

66.8 %

Wind Direction

North (360º, Ranging from 330º to 040º)

Wind Velocity

9 km/h (05 kt)

Gusts

None

Visibility

Greater than 10 Kilometers

Sea Level Pressure

1020 hPa (Hectopascals)

Layers of Clouds

5% to 30% of Sky Covered from 549 mts (1800 ft) Above Ground Level.

METAR LPPT 090930Z 36005KT 330V040 9999 FEW018 12/06 Q1020

Weather Forecast

LPPT | Lisbon Portela Airport

Lisbon, Portugal

Forecast valid for the next 26 Hours

In the next hour it is expected the begining of:

Moderate Winds from NorthEast

In 5 to 7 hours it is expected the begining of:

Moderate Winds from NorthWest

In 13 to 16 hours it is expected the begining of:

Light to Moderate Winds from North

In 23 to 26 hours it is expected the begining of:

Light to Moderate Winds from NorthEast

Maximum Temperature

No Data

Minimum Temperature

No Data

TAF LPPT 090500Z 0906/1012 32008KT CAVOK BECMG 0908/0911 03010KT BECMG 0915/0917 33012KT BECMG 0923/1002 34005KT BECMG 1009/1012 03008KT